createdAt,value
2022-09-18T00:04:26.008Z,8.00
2022-09-18T00:14:54.851Z,10.30
2022-09-18T00:25:24.207Z,8.60
2022-09-18T00:36:31.358Z,10.00
2022-09-18T00:47:44.439Z,9.20
2022-09-18T00:58:18.395Z,9.90
2022-09-18T01:09:00.433Z,12.90
2022-09-18T01:30:12.406Z,13.20
2022-09-18T01:40:45.601Z,8.90
2022-09-18T01:51:14.527Z,10.60
2022-09-18T02:01:20.953Z,10.00
2022-09-18T02:11:47.905Z,11.20
2022-09-18T02:22:21.328Z,14.20
2022-09-18T02:32:38.250Z,13.20
2022-09-18T02:43:18.429Z,14.90
2022-09-18T02:53:41.588Z,14.10
2022-09-18T03:03:52.919Z,15.40
2022-09-18T03:14:28.680Z,13.50
2022-09-18T03:24:47.901Z,12.20
2022-09-18T03:35:12.040Z,13.30
2022-09-18T03:45:48.538Z,12.80
2022-09-18T03:56:19.833Z,14.90
2022-09-18T04:07:01.819Z,16.10
2022-09-18T04:17:36.990Z,13.70
2022-09-18T04:28:34.000Z,10.80
2022-09-18T04:39:13.713Z,14.90
2022-09-18T04:50:11.428Z,13.50
2022-09-18T05:00:53.869Z,13.80
2022-09-18T05:11:59.509Z,11.10
2022-09-18T05:22:55.594Z,14.90
2022-09-18T05:33:12.183Z,15.60
2022-09-18T05:43:55.819Z,9.70
2022-09-18T05:54:38.777Z,11.00
2022-09-18T06:05:28.520Z,11.90
2022-09-18T06:15:59.523Z,11.30
2022-09-18T06:26:31.421Z,11.00
2022-09-18T06:37:24.129Z,10.50
2022-09-18T06:48:32.186Z,13.90
2022-09-18T06:59:00.743Z,9.50
2022-09-18T07:09:21.123Z,13.00
2022-09-18T07:19:37.345Z,8.90
2022-09-18T07:30:15.454Z,9.00
2022-09-18T07:40:22.566Z,8.50
2022-09-18T07:51:48.191Z,7.60
2022-09-18T08:02:41.104Z,7.30
2022-09-18T08:12:48.437Z,6.00
2022-09-18T08:23:38.074Z,6.40
2022-09-18T08:34:08.277Z,8.40
2022-09-18T08:45:14.794Z,7.10
2022-09-18T08:56:22.053Z,7.10
2022-09-18T09:07:53.079Z,5.70
2022-09-18T09:18:45.452Z,6.80
2022-09-18T09:29:15.922Z,7.40
2022-09-18T09:40:08.074Z,5.50
2022-09-18T09:51:22.037Z,5.30
2022-09-18T10:01:46.492Z,5.10
2022-09-18T10:12:23.197Z,5.70
2022-09-18T10:22:39.216Z,4.30
2022-09-18T10:32:53.327Z,5.60
2022-09-18T10:43:19.366Z,5.60
2022-09-18T10:53:32.597Z,5.60
2022-09-18T11:04:12.008Z,4.20
2022-09-18T11:14:27.502Z,6.40
2022-09-18T11:24:53.666Z,5.80
2022-09-18T11:35:18.505Z,4.60
2022-09-18T11:45:53.130Z,3.50
2022-09-18T11:56:41.028Z,3.80
2022-09-18T12:07:39.219Z,4.30
2022-09-18T12:17:57.129Z,3.90
2022-09-18T12:28:58.908Z,4.50
2022-09-18T12:39:39.405Z,6.10
2022-09-18T12:50:17.407Z,3.90
2022-09-18T13:00:50.585Z,3.70
2022-09-18T13:11:01.959Z,4.30
2022-09-18T13:21:10.477Z,6.40
2022-09-18T13:31:37.865Z,8.90
2022-09-18T13:41:48.446Z,4.40
2022-09-18T13:52:29.735Z,7.00
2022-09-18T14:03:14.221Z,7.00
2022-09-18T14:13:29.299Z,7.20
2022-09-18T14:24:02.963Z,4.80
2022-09-18T14:34:40.348Z,6.50
2022-09-18T14:45:28.109Z,6.10
2022-09-18T14:56:08.039Z,8.00
2022-09-18T15:06:17.536Z,6.90
2022-09-18T15:16:32.953Z,12.50
2022-09-18T15:26:44.722Z,9.70
2022-09-18T15:37:05.640Z,7.80
2022-09-18T15:48:07.401Z,8.70
2022-09-18T15:58:56.690Z,6.20
2022-09-18T16:10:16.815Z,7.30
2022-09-18T16:21:05.262Z,6.20
2022-09-18T16:31:48.691Z,6.90
2022-09-18T16:42:39.509Z,6.70
2022-09-18T16:52:48.238Z,6.60
2022-09-18T17:03:00.641Z,5.60
2022-09-18T17:13:16.688Z,6.60
2022-09-18T17:23:36.898Z,6.50
2022-09-18T17:33:48.009Z,4.10
2022-09-18T17:44:28.698Z,5.40
2022-09-18T17:54:57.417Z,5.20
2022-09-18T18:06:11.459Z,4.30
2022-09-18T18:16:41.491Z,6.70
2022-09-18T18:27:01.227Z,8.10
2022-09-18T18:37:25.003Z,6.20
2022-09-18T18:47:34.095Z,5.40
2022-09-18T18:57:42.880Z,7.40
2022-09-18T19:08:09.520Z,9.10
2022-09-18T19:18:36.608Z,7.00
2022-09-18T19:28:45.846Z,7.70
2022-09-18T19:39:13.233Z,7.50
2022-09-18T19:49:40.236Z,6.20
2022-09-18T20:00:13.239Z,7.00
2022-09-18T20:10:39.941Z,6.90
2022-09-18T20:21:29.474Z,6.00
2022-09-18T20:32:02.923Z,7.50
2022-09-18T20:43:03.280Z,8.20
2022-09-18T20:53:43.372Z,8.90
2022-09-18T21:04:18.456Z,11.60
2022-09-18T21:14:54.701Z,12.80
2022-09-18T21:25:14.754Z,11.90
2022-09-18T21:35:43.786Z,10.50
2022-09-18T21:45:58.380Z,11.30
2022-09-18T21:56:32.837Z,12.20
2022-09-18T22:07:02.711Z,11.10
2022-09-18T22:17:19.762Z,12.30
2022-09-18T22:27:29.439Z,11.70
2022-09-18T22:37:35.291Z,14.90
2022-09-18T22:47:41.759Z,8.80
2022-09-18T22:58:36.228Z,10.10
2022-09-18T23:09:06.831Z,9.20
2022-09-18T23:19:36.269Z,6.20
2022-09-18T23:29:51.325Z,6.50
2022-09-18T23:40:01.059Z,7.50
2022-09-18T23:50:30.861Z,6.00
